SECU/CUE METAR and TAF weather

Enter ICAO airport designator
Station Type Date Time Source
SECU METAR 2022/12/04 05:00 UTC NOAA

SECU 040500Z AUTO 07004KT ////NDV ////// 12/11 Q1024 A3026


Station Type Date Time Source
SECU Decoded METAR 2022/12/04 05:00 UTC NOAA

Cuenca / Mariscal Lamar, Ecuador (SECU) 02-53S 078-59W 2531M
Dec 04, 2022 - 12:00 AM EST / 2022.12.04 0500 UTC
Wind: from the ENE (070 degrees) at 5 MPH (4 KT):0
Temperature: 53 F (12 C)
Dew Point: 51 F (11 C)
Relative Humidity: 93%
Pressure (altimeter): 30.26 in. Hg (1024 hPa)
ob: SECU 040500Z AUTO 07004KT ////NDV ////// 12/11 Q1024 A3026
cycle: 5

Station Type Date Time Source
SECU TAF 2019/10/28 06:45 UTC NOAA

TAF SECU 280435Z 2806/2906 VRB03KT 9999 FEW010 BKN033
BECMG 2814/2815 05005KT BKN040 BKN100 TX20/2819Z TN12/2811Z

Example: see airport list